Time;durP1;ratioP1;P1;durP2;ratioP2;P2;SDS_P1;SDS_P2;PMS_P1;PMS_P2;Temp;Humidity;BMP_temperature;BMP_pressure;BME280_temperature;BME280_humidity;BME280_pressure;Samples;Min_cycle;Max_cycle;Signal;HPM_P1;HPM_P2
2022/05/22 00:00:33;;;;;;;6.63;2.17;;;11.50;99.90;;;;;;6317087;22;20012;-91
2022/05/22 00:02:59;;;;;;;8.07;2.47;;;11.50;99.90;;;;;;6312939;22;20081;-92
2022/05/22 00:05:25;;;;;;;8.85;2.50;;;11.50;99.90;;;;;;6311991;22;20025;-93
2022/05/22 00:07:51;;;;;;;6.18;1.95;;;11.40;99.90;;;;;;6312879;22;20010;-92
2022/05/22 00:10:19;;;;;;;5.25;2.03;;;11.40;99.90;;;;;;6312653;22;20103;-92
2022/05/22 00:12:44;;;;;;;8.95;2.15;;;11.40;99.90;;;;;;6311774;22;20380;-93
2022/05/22 00:15:12;;;;;;;3.75;2.10;;;11.50;99.90;;;;;;6312398;22;19999;-92
2022/05/22 00:17:38;;;;;;;6.47;1.23;;;11.60;99.90;;;;;;6311995;22;20015;-93
2022/05/22 00:20:04;;;;;;;7.07;1.48;;;11.60;99.90;;;;;;6311800;22;20337;-92
2022/05/22 00:22:31;;;;;;;8.85;2.25;;;11.60;99.90;;;;;;6311629;22;20003;-92
2022/05/22 00:24:57;;;;;;;7.43;2.60;;;11.60;99.90;;;;;;6311423;22;20034;-92
2022/05/22 00:27:24;;;;;;;6.75;1.98;;;11.60;99.90;;;;;;6311861;22;20336;-93
2022/05/22 00:29:51;;;;;;;7.57;2.10;;;11.60;99.90;;;;;;6312095;22;20114;-93
2022/05/22 00:32:17;;;;;;;8.23;1.30;;;11.70;99.90;;;;;;6311655;22;20097;-91
2022/05/22 00:34:42;;;;;;;6.75;1.30;;;11.60;99.90;;;;;;6311991;22;20033;-91
2022/05/22 00:37:08;;;;;;;7.13;1.50;;;11.70;99.90;;;;;;6311605;22;20037;-91
2022/05/22 00:39:35;;;;;;;6.97;1.35;;;11.70;99.90;;;;;;6312045;22;20007;-92
2022/05/22 00:42:11;;;;;;;6.15;1.73;;;11.70;99.90;;;;;;6310853;22;20007;-92
2022/05/22 00:44:37;;;;;;;5.45;1.40;;;11.70;99.90;;;;;;6311613;22;20064;-92
2022/05/22 00:47:03;;;;;;;7.93;1.50;;;11.70;99.90;;;;;;6311595;22;20386;-91
2022/05/22 00:49:31;;;;;;;14.23;1.52;;;11.70;99.90;;;;;;6311355;22;20025;-94
2022/05/22 00:52:03;;;;;;;6.45;1.60;;;11.70;99.90;;;;;;6311192;22;20011;-94
2022/05/22 00:54:42;;;;;;;7.45;2.13;;;11.70;99.90;;;;;;6311968;22;20030;-91
2022/05/22 00:57:16;;;;;;;8.43;1.83;;;11.60;99.90;;;;;;6315852;22;20010;-93
2022/05/22 00:59:46;;;;;;;5.25;1.30;;;11.60;99.90;;;;;;6315014;22;20044;-93
2022/05/22 01:02:15;;;;;;;3.90;1.40;;;11.60;99.90;;;;;;6343901;22;19999;-93
2022/05/22 01:04:42;;;;;;;10.32;2.00;;;11.60;99.90;;;;;;6317265;22;20017;-93
2022/05/22 01:07:08;;;;;;;6.82;2.30;;;11.60;99.90;;;;;;6314637;22;19995;-93
2022/05/22 01:09:38;;;;;;;9.35;2.00;;;11.60;99.90;;;;;;6312148;22;20007;-93
2022/05/22 01:12:23;;;;;;;5.53;1.60;;;11.60;99.90;;;;;;6311300;22;20098;-93
2022/05/22 01:14:52;;;;;;;11.55;1.95;;;11.60;99.90;;;;;;6311442;22;20002;-93
2022/05/22 01:17:18;;;;;;;10.10;1.33;;;11.60;99.90;;;;;;6310914;22;20015;-93
2022/05/22 01:19:59;;;;;;;8.05;1.70;;;11.60;99.90;;;;;;6311813;22;20674;-93
2022/05/22 01:22:26;;;;;;;4.30;1.35;;;11.70;99.90;;;;;;6312301;22;20083;-91
2022/05/22 01:24:53;;;;;;;7.75;1.98;;;11.70;99.90;;;;;;6311757;22;20429;-93
2022/05/22 01:27:21;;;;;;;7.63;1.75;;;11.70;99.90;;;;;;6310422;22;20074;-93
2022/05/22 01:29:47;;;;;;;8.73;2.25;;;11.70;99.90;;;;;;6310559;22;20060;-93
2022/05/22 01:32:16;;;;;;;5.32;1.52;;;11.70;99.90;;;;;;6310806;22;20043;-92
2022/05/22 01:34:45;;;;;;;7.65;1.50;;;11.70;99.90;;;;;;6310343;22;20011;-93
2022/05/22 01:37:10;;;;;;;8.93;1.63;;;11.70;99.90;;;;;;6310633;22;20345;-93
2022/05/22 01:39:36;;;;;;;5.68;1.52;;;11.70;99.90;;;;;;6310377;22;20002;-92
2022/05/22 01:42:02;;;;;;;6.35;1.48;;;11.70;99.90;;;;;;6310213;22;20072;-92
2022/05/22 01:44:28;;;;;;;5.47;1.52;;;11.80;99.90;;;;;;6310296;22;20002;-92
2022/05/22 01:46:53;;;;;;;8.43;2.35;;;11.80;99.90;;;;;;6310435;22;20493;-92
2022/05/22 01:49:19;;;;;;;5.28;1.60;;;11.80;99.90;;;;;;6310241;22;20006;-92
2022/05/22 01:51:45;;;;;;;7.38;1.70;;;11.80;99.90;;;;;;6309918;22;20175;-92
2022/05/22 01:54:10;;;;;;;5.82;1.80;;;11.80;99.90;;;;;;6311450;22;20007;-92
2022/05/22 01:56:37;;;;;;;5.05;1.25;;;11.80;99.90;;;;;;6312365;22;20003;-93
2022/05/22 01:59:04;;;;;;;10.10;1.65;;;11.80;99.90;;;;;;6312051;22;20045;-92
2022/05/22 02:01:31;;;;;;;6.13;1.35;;;11.90;99.90;;;;;;6312517;22;20002;-93
2022/05/22 02:03:57;;;;;;;6.47;1.60;;;11.90;99.90;;;;;;6312051;22;20010;-93
2022/05/22 02:06:23;;;;;;;4.78;1.23;;;11.90;99.90;;;;;;6312360;22;20011;-92
2022/05/22 02:08:48;;;;;;;4.47;1.13;;;11.90;99.90;;;;;;6312346;22;20017;-93
2022/05/22 02:11:14;;;;;;;3.67;1.45;;;11.90;99.90;;;;;;6312290;22;20093;-92
2022/05/22 02:13:45;;;;;;;4.22;1.73;;;12.00;99.90;;;;;;6312061;22;20023;-92
2022/05/22 02:16:12;;;;;;;5.88;2.10;;;11.90;99.90;;;;;;6312233;22;20003;-92
2022/05/22 02:18:37;;;;;;;6.95;1.42;;;11.90;99.90;;;;;;6311569;22;20019;-92
2022/05/22 02:21:03;;;;;;;6.55;1.55;;;11.90;99.90;;;;;;6312450;22;20441;-93
2022/05/22 02:23:32;;;;;;;8.18;1.60;;;11.90;99.90;;;;;;6312055;22;20007;-91
2022/05/22 02:25:58;;;;;;;7.65;1.58;;;11.90;99.90;;;;;;6312275;22;20002;-92
2022/05/22 02:28:25;;;;;;;3.97;1.20;;;11.90;99.90;;;;;;6312317;22;20113;-92
2022/05/22 02:30:55;;;;;;;6.50;1.88;;;11.90;99.90;;;;;;6311920;22;20011;-92
2022/05/22 02:33:21;;;;;;;5.70;1.17;;;11.90;99.90;;;;;;6311797;22;20003;-92
2022/05/22 02:35:47;;;;;;;8.00;2.05;;;11.90;99.90;;;;;;6312890;22;19999;-92
2022/05/22 02:38:14;;;;;;;7.53;1.27;;;11.90;99.90;;;;;;6313034;22;20040;-91
2022/05/22 02:40:40;;;;;;;8.35;1.33;;;11.80;99.90;;;;;;6313210;22;20003;-92
2022/05/22 02:43:07;;;;;;;8.15;1.58;;;11.80;99.90;;;;;;6313658;22;20009;-92
2022/05/22 02:45:35;;;;;;;3.78;1.27;;;11.80;99.90;;;;;;6320822;22;20072;-92
2022/05/22 02:48:01;;;;;;;3.72;1.27;;;11.80;99.90;;;;;;6323905;22;20029;-93
2022/05/22 02:50:29;;;;;;;6.55;1.45;;;11.80;99.90;;;;;;6320760;22;20218;-92
2022/05/22 02:52:56;;;;;;;8.50;1.55;;;11.70;99.90;;;;;;6320189;22;20007;-93
2022/05/22 02:55:22;;;;;;;5.03;1.58;;;11.70;99.90;;;;;;6312979;22;20007;-92
2022/05/22 02:57:48;;;;;;;4.65;1.35;;;11.70;99.90;;;;;;6313203;22;19999;-91
2022/05/22 03:00:17;;;;;;;4.82;1.33;;;11.70;99.90;;;;;;6312043;22;20002;-92
2022/05/22 03:02:43;;;;;;;2.80;1.25;;;11.80;99.90;;;;;;6312009;22;20438;-92
2022/05/22 03:05:10;;;;;;;6.70;1.60;;;11.80;99.90;;;;;;6311728;22;20009;-91
2022/05/22 03:07:39;;;;;;;5.15;1.60;;;11.80;99.90;;;;;;6311988;22;20006;-92
2022/05/22 03:10:07;;;;;;;4.90;1.27;;;11.80;99.90;;;;;;6311991;22;20118;-92
2022/05/22 03:12:33;;;;;;;6.65;1.80;;;11.80;99.90;;;;;;6311930;22;20034;-91
2022/05/22 03:14:59;;;;;;;5.32;1.40;;;11.80;99.90;;;;;;6312235;22;19999;-91
2022/05/22 03:17:25;;;;;;;10.82;1.63;;;11.80;99.90;;;;;;6310683;22;20090;-92
2022/05/22 03:19:51;;;;;;;5.32;2.47;;;11.80;99.90;;;;;;6311566;22;20455;-91
2022/05/22 03:22:18;;;;;;;13.10;1.52;;;11.80;99.90;;;;;;6311576;22;20061;-92
2022/05/22 03:24:44;;;;;;;4.65;1.35;;;11.80;99.90;;;;;;6311351;22;20006;-91
2022/05/22 03:27:13;;;;;;;6.68;1.50;;;11.80;99.90;;;;;;6311794;22;20063;-92
2022/05/22 03:29:43;;;;;;;3.55;1.23;;;11.80;99.90;;;;;;6311747;22;19999;-92
2022/05/22 03:32:09;;;;;;;7.50;1.50;;;11.80;99.90;;;;;;6311582;22;20054;-91
2022/05/22 03:34:35;;;;;;;7.18;2.20;;;11.80;99.90;;;;;;6311497;22;19999;-92
2022/05/22 03:37:01;;;;;;;5.60;1.40;;;11.80;99.90;;;;;;6311164;22;19999;-92
2022/05/22 03:39:27;;;;;;;9.40;1.55;;;11.80;99.90;;;;;;6311167;22;20007;-92
2022/05/22 03:41:53;;;;;;;6.57;1.60;;;11.80;99.90;;;;;;6311456;22;19999;-92
2022/05/22 03:44:19;;;;;;;9.40;1.80;;;11.80;99.90;;;;;;6311003;22;20002;-92
2022/05/22 03:46:45;;;;;;;4.68;1.77;;;11.90;99.90;;;;;;6310991;22;20009;-92
2022/05/22 03:49:12;;;;;;;5.25;1.40;;;11.90;99.90;;;;;;6311279;22;20011;-92
2022/05/22 03:51:39;;;;;;;5.22;1.63;;;11.90;99.90;;;;;;6311149;22;20094;-92
2022/05/22 03:54:05;;;;;;;9.80;1.67;;;11.90;99.90;;;;;;6311124;22;19999;-92
2022/05/22 03:56:31;;;;;;;5.00;1.92;;;11.90;99.90;;;;;;6311441;22;20014;-91
2022/05/22 03:58:57;;;;;;;5.93;1.20;;;11.90;99.90;;;;;;6311294;22;20702;-92
2022/05/22 04:01:22;;;;;;;5.68;1.60;;;11.90;99.90;;;;;;6310948;22;20009;-91
2022/05/22 04:03:48;;;;;;;5.53;1.58;;;12.00;99.90;;;;;;6311564;22;20487;-91
2022/05/22 04:06:14;;;;;;;6.68;1.80;;;12.00;99.90;;;;;;6311411;22;20063;-91
2022/05/22 04:08:39;;;;;;;4.80;1.30;;;12.00;99.90;;;;;;6311695;22;19998;-92
2022/05/22 04:11:12;;;;;;;5.43;1.85;;;12.00;99.90;;;;;;6312609;22;20644;-92
2022/05/22 04:13:38;;;;;;;5.68;1.50;;;12.00;99.90;;;;;;6318465;22;20011;-92
2022/05/22 04:16:04;;;;;;;4.60;1.35;;;12.00;99.90;;;;;;6311137;22;19998;-92
2022/05/22 04:18:31;;;;;;;13.77;3.55;;;12.00;99.90;;;;;;6310806;22;20018;-91
2022/05/22 04:20:56;;;;;;;7.97;1.75;;;12.00;99.90;;;;;;6310916;22;20017;-92
2022/05/22 04:26:07;;;;;;;6.13;1.15;;;12.00;99.90;;;;;;6338333;22;20490;-91
2022/05/22 04:28:33;;;;;;;4.00;1.60;;;12.00;99.90;;;;;;6310427;22;19999;-92
2022/05/22 04:30:59;;;;;;;5.32;1.50;;;12.00;99.90;;;;;;6310272;22;20037;-91
2022/05/22 04:33:26;;;;;;;6.55;1.38;;;12.00;99.90;;;;;;6310599;22;19999;-93
2022/05/22 04:35:52;;;;;;;5.90;1.88;;;12.00;99.90;;;;;;6311117;22;20007;-92
2022/05/22 04:38:19;;;;;;;7.63;1.50;;;12.00;99.90;;;;;;6311010;22;20003;-91
2022/05/22 04:40:58;;;;;;;3.80;1.27;;;12.00;99.90;;;;;;6310858;22;20010;-92
2022/05/22 04:43:27;;;;;;;7.88;1.80;;;12.00;99.90;;;;;;6311096;22;20060;-91
2022/05/22 04:45:54;;;;;;;6.28;1.55;;;12.00;99.90;;;;;;6312084;22;19999;-92
2022/05/22 04:48:28;;;;;;;4.70;1.25;;;12.00;99.90;;;;;;6312792;22;20010;-92
2022/05/22 04:50:59;;;;;;;4.82;1.40;;;12.00;99.90;;;;;;6311080;22;20026;-93
2022/05/22 04:53:28;;;;;;;5.57;1.48;;;12.00;99.90;;;;;;6310699;22;20003;-91
2022/05/22 04:55:57;;;;;;;5.32;1.70;;;12.00;99.90;;;;;;6310689;22;20326;-92
2022/05/22 04:58:23;;;;;;;10.23;2.78;;;12.00;99.90;;;;;;6310750;22;20011;-90
2022/05/22 05:00:49;;;;;;;6.63;1.30;;;12.00;99.90;;;;;;6310523;22;20003;-93
2022/05/22 05:03:15;;;;;;;7.35;1.52;;;12.00;99.90;;;;;;6310274;22;20002;-92
2022/05/22 05:05:41;;;;;;;4.13;1.40;;;12.10;99.90;;;;;;6310700;22;20007;-91
2022/05/22 05:08:07;;;;;;;5.68;1.50;;;12.10;99.90;;;;;;6310359;22;20014;-92
2022/05/22 05:10:33;;;;;;;3.17;1.40;;;12.10;99.90;;;;;;6310434;22;20326;-91
2022/05/22 05:13:00;;;;;;;5.82;1.13;;;12.10;99.90;;;;;;6310740;22;20007;-93
2022/05/22 05:15:26;;;;;;;6.57;1.40;;;12.10;99.90;;;;;;6310471;22;20122;-90
2022/05/22 05:17:52;;;;;;;7.53;1.73;;;12.20;99.90;;;;;;6310426;22;20064;-91
2022/05/22 05:20:23;;;;;;;6.60;1.60;;;12.20;99.90;;;;;;6310672;22;20037;-91
2022/05/22 05:22:49;;;;;;;5.80;1.73;;;12.20;99.90;;;;;;6311455;22;20002;-92
2022/05/22 05:25:15;;;;;;;6.30;1.30;;;12.20;99.90;;;;;;6311476;22;20006;-92
2022/05/22 05:27:41;;;;;;;4.57;1.40;;;12.30;99.90;;;;;;6310961;22;19999;-92
2022/05/22 05:30:08;;;;;;;3.28;2.03;;;12.30;99.90;;;;;;6310967;22;20018;-92
2022/05/22 05:32:33;;;;;;;7.78;1.50;;;12.30;99.90;;;;;;6311574;22;20099;-89
2022/05/22 05:35:02;;;;;;;10.35;1.30;;;12.30;99.90;;;;;;6311768;22;20002;-91
2022/05/22 05:37:28;;;;;;;3.83;1.20;;;12.40;99.90;;;;;;6323233;22;20006;-91
2022/05/22 05:39:54;;;;;;;7.45;1.23;;;12.30;99.90;;;;;;6323194;22;20010;-92
2022/05/22 05:42:21;;;;;;;7.05;1.20;;;12.40;99.90;;;;;;6320190;22;20002;-91
2022/05/22 05:44:48;;;;;;;4.57;1.33;;;12.40;99.90;;;;;;6318731;22;20324;-91
2022/05/22 05:47:14;;;;;;;4.82;1.27;;;12.40;99.90;;;;;;6315382;22;20030;-92
2022/05/22 05:49:40;;;;;;;5.80;1.38;;;12.50;99.90;;;;;;6313223;22;20029;-91
2022/05/22 05:52:07;;;;;;;2.78;1.23;;;12.50;99.90;;;;;;6311761;22;20438;-91
2022/05/22 05:54:36;;;;;;;5.07;1.40;;;12.50;99.90;;;;;;6312328;22;19998;-90
2022/05/22 05:57:01;;;;;;;6.85;1.20;;;12.60;99.90;;;;;;6311995;22;20011;-91
2022/05/22 05:59:27;;;;;;;5.72;1.48;;;12.60;99.90;;;;;;6312240;22;20002;-91
2022/05/22 06:01:53;;;;;;;9.50;1.65;;;12.70;99.90;;;;;;6313115;22;19999;-92
2022/05/22 06:04:20;;;;;;;2.92;1.13;;;12.70;99.90;;;;;;6312134;22;20334;-92
2022/05/22 06:06:46;;;;;;;5.53;1.50;;;12.80;99.90;;;;;;6310376;22;20018;-91
2022/05/22 06:09:11;;;;;;;3.30;1.20;;;12.80;99.90;;;;;;6310312;22;19999;-92
2022/05/22 06:11:37;;;;;;;6.93;1.33;;;12.90;99.90;;;;;;6310010;22;20373;-92
2022/05/22 06:14:03;;;;;;;7.50;1.40;;;12.90;99.90;;;;;;6310046;22;20441;-91
2022/05/22 06:16:29;;;;;;;6.32;1.55;;;13.00;99.90;;;;;;6310133;22;20002;-91
2022/05/22 06:18:55;;;;;;;4.30;1.48;;;13.00;99.90;;;;;;6309726;22;20094;-92
2022/05/22 06:21:22;;;;;;;9.13;2.33;;;13.00;99.90;;;;;;6309910;22;20090;-92
2022/05/22 06:23:48;;;;;;;8.27;1.55;;;13.10;99.90;;;;;;6309915;22;20147;-92
2022/05/22 06:26:17;;;;;;;2.05;0.93;;;13.20;99.90;;;;;;6309497;22;20049;-94
2022/05/22 06:28:43;;;;;;;4.57;1.30;;;13.20;99.90;;;;;;6309927;22;20018;-91
2022/05/22 06:31:09;;;;;;;5.45;1.40;;;13.20;99.90;;;;;;6307989;22;20018;-92
2022/05/22 06:33:35;;;;;;;3.80;1.33;;;13.20;99.90;;;;;;6309253;22;20330;-92
2022/05/22 06:36:13;;;;;;;2.92;1.55;;;13.30;99.90;;;;;;6310138;22;20055;-92
2022/05/22 06:41:24;;;;;;;4.20;1.88;;;13.20;99.90;;;;;;6347146;22;20015;-92
2022/05/22 06:43:51;;;;;;;4.57;1.20;;;13.30;99.90;;;;;;6337622;22;20011;-91
2022/05/22 06:46:18;;;;;;;4.40;1.42;;;13.20;99.90;;;;;;6312618;22;19999;-92
2022/05/22 06:48:44;;;;;;;5.60;1.55;;;13.30;99.90;;;;;;6313783;22;20050;-92
2022/05/22 06:51:10;;;;;;;2.08;1.08;;;13.30;99.90;;;;;;6311472;22;20011;-91
2022/05/22 06:53:36;;;;;;;6.15;1.35;;;13.40;99.90;;;;;;6311206;22;20007;-92
2022/05/22 06:56:02;;;;;;;2.78;1.25;;;13.40;99.90;;;;;;6311666;22;20386;-91
2022/05/22 06:58:28;;;;;;;2.00;1.00;;;13.40;99.90;;;;;;6310800;22;20014;-93
2022/05/22 07:00:54;;;;;;;3.38;1.10;;;13.50;99.90;;;;;;6310843;22;20421;-92
2022/05/22 07:03:20;;;;;;;3.80;1.00;;;13.50;99.90;;;;;;6310815;22;20007;-91
2022/05/22 07:05:46;;;;;;;5.05;1.30;;;13.50;99.90;;;;;;6311508;22;20003;-91
2022/05/22 07:08:12;;;;;;;6.85;1.48;;;13.60;99.90;;;;;;6311038;22;20467;-91
2022/05/22 07:13:21;;;;;;;3.63;1.10;;;13.70;99.90;;;;;;6338990;22;20018;-92
2022/05/22 07:16:01;;;;;;;4.47;1.30;;;13.70;99.90;;;;;;6315420;22;20014;-91
2022/05/22 07:18:27;;;;;;;10.25;1.50;;;13.70;99.90;;;;;;6312722;22;20446;-92
2022/05/22 07:20:53;;;;;;;3.42;1.10;;;13.80;99.90;;;;;;6311973;22;20010;-91
2022/05/22 07:23:18;;;;;;;4.95;1.30;;;13.80;99.90;;;;;;6311351;22;20014;-91
2022/05/22 07:25:44;;;;;;;3.15;1.17;;;13.80;99.90;;;;;;6311080;22;20002;-91
2022/05/22 07:28:10;;;;;;;5.72;1.38;;;13.90;99.90;;;;;;6311280;22;20489;-91
2022/05/22 07:30:36;;;;;;;5.03;1.20;;;14.00;99.90;;;;;;6312556;22;20007;-92
2022/05/22 07:33:01;;;;;;;2.80;1.10;;;14.00;99.90;;;;;;6312092;22;20007;-92
2022/05/22 07:35:27;;;;;;;8.25;1.58;;;14.10;99.90;;;;;;6311244;22;20002;-93
2022/05/22 07:37:53;;;;;;;4.07;1.20;;;14.10;99.90;;;;;;6311832;22;20076;-92
2022/05/22 07:40:19;;;;;;;6.35;1.10;;;14.20;99.90;;;;;;6311739;22;20034;-92
2022/05/22 07:42:45;;;;;;;3.63;1.15;;;14.20;99.90;;;;;;6311766;22;20052;-91
2022/05/22 07:45:14;;;;;;;5.40;1.38;;;14.20;99.90;;;;;;6311125;22;20010;-92
2022/05/22 07:47:39;;;;;;;2.65;1.05;;;14.30;99.90;;;;;;6311824;22;20007;-92
2022/05/22 07:50:18;;;;;;;3.58;1.35;;;14.30;99.90;;;;;;6310740;22;20013;-92
2022/05/22 07:52:47;;;;;;;5.47;1.55;;;14.40;99.90;;;;;;6310533;22;20060;-90
2022/05/22 07:55:15;;;;;;;4.73;1.20;;;14.40;99.90;;;;;;6311268;22;20144;-92
2022/05/22 07:57:46;;;;;;;7.00;1.40;;;14.50;99.90;;;;;;6310223;22;20002;-92
2022/05/22 08:00:17;;;;;;;1.80;1.13;;;14.50;99.90;;;;;;6310385;22;20345;-93
2022/05/22 08:02:43;;;;;;;3.40;1.35;;;14.60;99.90;;;;;;6310707;22;19995;-91
2022/05/22 08:05:10;;;;;;;4.80;1.45;;;14.60;99.90;;;;;;6336552;22;20014;-91
2022/05/22 08:07:44;;;;;;;3.75;1.30;;;14.70;99.90;;;;;;6310833;22;20014;-91
2022/05/22 08:10:12;;;;;;;5.45;1.73;;;14.70;99.90;;;;;;6315335;22;20010;-90
2022/05/22 08:12:41;;;;;;;3.63;1.35;;;14.80;99.90;;;;;;6313941;22;20044;-91
2022/05/22 08:15:08;;;;;;;1.73;1.10;;;14.80;99.90;;;;;;6311758;22;20002;-92
2022/05/22 08:17:37;;;;;;;4.97;1.45;;;14.80;99.90;;;;;;6311401;22;20010;-92
2022/05/22 08:20:06;;;;;;;4.05;1.35;;;14.80;99.90;;;;;;6310948;22;20019;-92
2022/05/22 08:22:32;;;;;;;4.18;1.60;;;14.80;99.90;;;;;;6309854;22;19999;-90
2022/05/22 08:24:59;;;;;;;4.82;1.67;;;14.90;99.90;;;;;;6311073;22;20006;-92
2022/05/22 08:27:25;;;;;;;3.75;1.38;;;14.90;99.90;;;;;;6311636;22;20045;-91
2022/05/22 08:29:51;;;;;;;7.90;1.17;;;15.00;99.90;;;;;;6311574;22;20417;-92
2022/05/22 08:32:17;;;;;;;4.70;2.03;;;15.10;99.90;;;;;;6320994;22;20024;-94
2022/05/22 08:34:42;;;;;;;2.60;1.35;;;15.10;99.90;;;;;;6323989;22;20034;-91
2022/05/22 08:37:08;;;;;;;2.85;1.33;;;15.20;99.90;;;;;;6321314;22;20025;-92
2022/05/22 08:39:34;;;;;;;4.50;1.38;;;15.30;99.90;;;;;;6320797;22;20326;-93
2022/05/22 08:42:06;;;;;;;3.92;1.70;;;15.30;99.90;;;;;;6316004;22;20390;-92
2022/05/22 08:44:32;;;;;;;3.72;1.33;;;15.30;99.90;;;;;;6314058;22;20035;-91
2022/05/22 08:47:03;;;;;;;4.25;1.08;;;15.40;99.90;;;;;;6312931;22;20326;-92
2022/05/22 08:49:42;;;;;;;6.30;1.80;;;15.50;99.90;;;;;;6312529;22;19995;-92
2022/05/22 08:52:45;;;;;;;4.40;1.80;;;15.50;99.90;;;;;;6312042;22;20023;-92
2022/05/22 09:01:48;;;;;;;3.95;1.48;;;15.90;99.90;;;;;;6338902;22;20493;-93
2022/05/22 09:04:36;;;;;;;5.03;1.88;;;15.90;99.90;;;;;;6310141;22;20059;-90
2022/05/22 09:07:20;;;;;;;3.95;1.30;;;16.00;99.90;;;;;;6311160;22;20097;-92
2022/05/22 09:09:52;;;;;;;6.20;2.38;;;16.00;99.90;;;;;;6311248;22;20029;-91
2022/05/22 09:12:30;;;;;;;5.07;1.60;;;16.00;99.90;;;;;;6311158;22;20007;-91
2022/05/22 09:15:14;;;;;;;4.60;1.25;;;16.00;99.90;;;;;;6310948;22;20006;-91
2022/05/22 09:17:48;;;;;;;2.60;1.20;;;16.20;99.90;;;;;;6310439;22;20030;-92
2022/05/22 09:20:53;;;;;;;2.08;1.00;;;16.30;99.90;;;;;;6308382;22;19998;-92
2022/05/22 09:23:49;;;;;;;6.38;2.13;;;16.30;99.90;;;;;;6311306;22;20003;-92
2022/05/22 09:26:21;;;;;;;5.72;1.70;;;16.30;99.90;;;;;;6310351;22;20011;-93
2022/05/22 09:29:18;;;;;;;4.38;1.17;;;16.30;99.90;;;;;;6309921;22;19999;-92
2022/05/22 09:31:55;;;;;;;2.75;1.20;;;16.50;99.90;;;;;;6336280;22;20026;-92
2022/05/22 09:34:45;;;;;;;6.18;1.60;;;16.60;99.90;;;;;;6310474;22;19999;-92
2022/05/22 09:37:44;;;;;;;3.50;1.33;;;16.80;99.90;;;;;;6336113;22;20110;-92
2022/05/22 09:40:22;;;;;;;8.32;1.50;;;16.90;99.90;;;;;;6187084;23;20005;-91
2022/05/22 09:42:59;;;;;;;3.65;1.50;;;17.00;99.90;;;;;;6187145;23;20001;-92
2022/05/22 09:45:52;;;;;;;5.90;1.65;;;17.00;99.90;;;;;;6187066;23;20020;-91
2022/05/22 09:48:18;;;;;;;3.97;1.05;;;17.10;99.90;;;;;;6187256;23;20012;-94
2022/05/22 09:51:09;;;;;;;2.20;1.20;;;17.20;99.90;;;;;;6189760;23;20077;-93
2022/05/22 09:53:41;;;;;;;3.83;1.33;;;17.30;99.90;;;;;;6184634;23;20005;-93
2022/05/22 09:56:34;;;;;;;2.50;0.90;;;17.40;99.90;;;;;;6187882;23;20104;-93
2022/05/22 09:59:05;;;;;;;3.42;1.30;;;17.60;99.90;;;;;;6187153;23;20028;-93
2022/05/22 10:01:34;;;;;;;3.85;1.10;;;17.80;99.90;;;;;;6186674;23;20016;-92
2022/05/22 10:04:19;;;;;;;2.13;1.00;;;18.00;99.90;;;;;;6186900;23;20007;-92
2022/05/22 10:07:03;;;;;;;3.28;1.33;;;18.30;99.90;;;;;;6186987;23;20008;-91
2022/05/22 10:09:56;;;;;;;2.53;1.23;;;18.50;99.30;;;;;;6186998;23;20036;-92
2022/05/22 10:12:27;;;;;;;3.40;1.05;;;18.70;98.40;;;;;;6187275;23;20099;-92
2022/05/22 10:15:11;;;;;;;1.35;0.85;;;19.00;97.30;;;;;;6188552;23;20067;-92
2022/05/22 10:17:49;;;;;;;1.85;1.00;;;19.10;96.40;;;;;;6271364;22;20053;-94
2022/05/22 10:20:45;;;;;;;2.58;1.00;;;19.20;95.30;;;;;;6314662;22;20099;-92
2022/05/22 10:23:36;;;;;;;3.88;1.00;;;19.30;94.50;;;;;;6318844;22;20509;-94
2022/05/22 10:26:36;;;;;;;3.58;0.77;;;19.40;93.20;;;;;;6316999;22;20067;-93
2022/05/22 10:29:22;;;;;;;9.32;1.20;;;19.40;92.10;;;;;;6313172;22;20003;-92
2022/05/22 10:32:03;;;;;;;2.92;0.60;;;19.40;91.70;;;;;;6313093;22;20342;-92
2022/05/22 10:34:36;;;;;;;3.35;0.98;;;19.60;91.20;;;;;;6313466;22;20003;-92
2022/05/22 10:37:18;;;;;;;3.42;0.73;;;19.80;90.50;;;;;;6312986;22;20014;-93
2022/05/22 10:39:43;;;;;;;2.25;0.70;;;19.90;89.40;;;;;;6313850;22;20007;-92
2022/05/22 10:42:46;;;;;;;2.95;0.90;;;20.00;88.90;;;;;;6313697;22;20484;-92
2022/05/22 10:45:50;;;;;;;3.10;0.63;;;19.90;85.90;;;;;;6313474;22;20010;-92
2022/05/22 10:48:24;;;;;;;1.67;0.65;;;19.90;85.20;;;;;;6286766;22;20007;-91
2022/05/22 10:51:08;;;;;;;2.80;0.95;;;19.90;84.40;;;;;;6313457;22;20137;-92
2022/05/22 10:53:50;;;;;;;1.08;0.57;;;20.00;85.00;;;;;;6313736;22;20007;-93
2022/05/22 10:56:18;;;;;;;2.13;1.38;;;20.20;85.40;;;;;;6313482;22;20006;-92
2022/05/22 10:58:54;;;;;;;3.92;1.00;;;20.30;84.10;;;;;;6313482;22;20007;-93
2022/05/22 11:01:29;;;;;;;1.92;1.00;;;20.50;84.00;;;;;;6312933;22;20110;-91
2022/05/22 11:04:34;;;;;;;2.42;0.98;;;20.60;84.00;;;;;;6313619;22;20006;-92
2022/05/22 11:07:02;;;;;;;1.00;0.80;;;20.70;83.50;;;;;;6267530;22;20014;-93
2022/05/22 11:09:31;;;;;;;2.28;0.80;;;20.70;83.10;;;;;;6313065;22;20086;-92
2022/05/22 11:12:09;;;;;;;1.27;0.80;;;20.80;82.90;;;;;;6310814;22;20015;-92
2022/05/22 11:14:35;;;;;;;2.28;1.00;;;20.70;81.90;;;;;;6312169;22;20022;-92
2022/05/22 11:17:08;;;;;;;1.75;0.82;;;20.60;80.90;;;;;;6311759;22;20057;-91
2022/05/22 11:19:38;;;;;;;2.13;0.82;;;20.70;81.70;;;;;;6312345;22;20015;-90
2022/05/22 11:22:58;;;;;;;3.78;0.90;;;20.90;81.50;;;;;;6311575;22;20002;-92
2022/05/22 11:25:38;;;;;;;4.90;1.40;;;21.10;80.90;;;;;;6311136;22;20185;-92
2022/05/22 11:28:23;;;;;;;;;;;21.20;79.40;;;;;;6312808;22;19998;-91
2022/05/22 11:30:59;;;;;;;6.15;1.50;;;21.10;78.60;;;;;;6321589;22;19938;-90
2022/05/22 11:33:50;;;;;;;4.68;1.20;;;20.90;79.00;;;;;;6324466;22;20007;-92
2022/05/22 11:36:39;;;;;;;4.65;1.50;;;21.00;78.80;;;;;;6319070;22;20014;-93
2022/05/22 11:39:17;;;;;;;2.00;1.10;;;21.00;78.70;;;;;;6319904;22;20002;-93
2022/05/22 11:42:04;;;;;;;2.42;1.20;;;20.90;79.00;;;;;;6315314;22;20086;-92
2022/05/22 11:44:58;;;;;;;2.42;1.38;;;21.10;79.50;;;;;;6314171;22;20026;-92
2022/05/22 11:47:48;;;;;;;3.10;1.40;;;21.20;78.70;;;;;;6313363;22;20011;-93
2022/05/22 11:50:51;;;;;;;4.30;1.42;;;21.30;78.40;;;;;;6314868;22;20388;-93
2022/05/22 11:53:53;;;;;;;4.25;1.98;;;21.10;78.40;;;;;;6343460;22;20068;-95
2022/05/22 11:56:41;;;;;;;2.33;1.70;;;20.90;78.70;;;;;;6314174;22;20032;-95
2022/05/22 11:59:48;;;;;;;1.88;1.48;;;20.70;79.30;;;;;;6316316;22;20073;-95
2022/05/22 12:02:47;;;;;;;4.20;2.45;;;20.60;79.50;;;;;;6316989;22;20028;-94
2022/05/22 12:05:49;;;;;;;4.63;1.77;;;20.50;79.90;;;;;;6319306;22;20007;-93
2022/05/22 12:08:42;;;;;;;4.10;2.00;;;20.20;80.50;;;;;;6316500;22;20003;-93
2022/05/22 12:11:32;;;;;;;4.55;1.75;;;20.10;81.60;;;;;;6318877;22;20013;-94
2022/05/22 12:14:27;;;;;;;1.60;1.23;;;20.20;82.00;;;;;;6341806;22;20011;-94
2022/05/22 12:17:11;;;;;;;3.67;1.73;;;20.30;82.10;;;;;;6315765;22;20007;-94
2022/05/22 12:25:55;;;;;;;1.73;1.17;;;19.60;82.70;;;;;;6279790;22;20027;-96
2022/05/22 12:28:48;;;;;;;3.30;1.60;;;19.40;83.70;;;;;;6315488;22;20047;-95
2022/05/22 12:31:42;;;;;;;3.42;1.35;;;19.30;84.80;;;;;;6314424;22;20006;-94
2022/05/22 12:34:18;;;;;;;2.67;1.30;;;19.20;85.20;;;;;;6343317;22;20333;-92
2022/05/22 12:36:54;;;;;;;2.92;1.20;;;19.30;85.30;;;;;;6314657;22;20310;-95
2022/05/22 13:22:35;;;;;;;2.45;1.13;;;20.50;83.80;;;;;;6356940;22;20017;-92
2022/05/22 13:25:08;;;;;;;1.10;1.00;;;20.50;83.20;;;;;;6244834;22;20019;-95
2022/05/22 13:27:42;;;;;;;2.05;1.25;;;20.70;83.30;;;;;;6250896;22;20083;-92
2022/05/22 13:30:15;;;;;;;3.15;1.70;;;20.80;83.10;;;;;;6252593;22;20079;-94
2022/05/22 13:32:51;;;;;;;3.38;1.55;;;20.80;82.10;;;;;;6253592;22;20014;-96
2022/05/22 13:35:28;;;;;;;2.38;1.70;;;20.70;82.30;;;;;;6251773;22;20083;-93
2022/05/22 13:37:58;;;;;;;2.75;1.58;;;20.60;82.30;;;;;;6251624;22;20442;-94
2022/05/22 13:47:49;;;;;;;2.40;1.55;;;20.50;82.40;;;;;;6289185;22;20049;-92
2022/05/22 13:53:33;;;;;;;3.03;1.50;;;20.90;82.40;;;;;;6313451;22;20037;-96
2022/05/22 13:55:58;;;;;;;2.63;1.30;;;21.40;81.20;;;;;;6289069;22;20003;-95
2022/05/22 13:58:39;;;;;;;3.20;1.40;;;21.60;79.60;;;;;;6315765;22;20003;-95
2022/05/22 14:12:14;;;;;;;2.67;1.73;;;21.60;78.40;;;;;;6326055;22;20049;-94
2022/05/22 14:14:40;;;;;;;2.97;1.70;;;21.50;78.30;;;;;;6259713;23;20032;-94
2022/05/22 14:17:09;;;;;;;3.95;1.40;;;21.60;77.90;;;;;;6233784;23;20035;-94
2022/05/22 14:19:45;;;;;;;1.50;1.40;;;21.80;77.40;;;;;;6231662;23;20004;-95
2022/05/22 14:22:21;;;;;;;3.95;1.50;;;21.90;76.90;;;;;;6232128;23;20004;-94
2022/05/22 15:53:13;;;;;;;2.00;1.05;;;21.80;76.30;;;;;;6301946;22;20030;-95
2022/05/22 15:55:39;;;;;;;3.72;1.13;;;21.80;76.80;;;;;;6293751;22;20018;-93
2022/05/22 15:58:08;;;;;;;2.80;1.20;;;21.70;76.80;;;;;;6293075;22;20035;-95
2022/05/22 16:00:33;;;;;;;2.30;1.10;;;21.60;76.90;;;;;;6290761;22;19999;-95
2022/05/22 16:03:03;;;;;;;2.53;1.33;;;21.50;77.00;;;;;;6287723;22;20323;-95